sensor_id;sensor_type;location;lat;lon;timestamp;temperature;humidity
24176;DHT22;12324;48.146;11.502;2022-11-14T00:00:53;4.60;99.90
24176;DHT22;12324;48.146;11.502;2022-11-14T00:03:20;4.70;99.90
24176;DHT22;12324;48.146;11.502;2022-11-14T00:05:46;4.70;99.90
24176;DHT22;12324;48.146;11.502;2022-11-14T00:08:21;4.70;99.90
24176;DHT22;12324;48.146;11.502;2022-11-14T00:10:49;4.60;99.90
24176;DHT22;12324;48.146;11.502;2022-11-14T00:13:18;4.60;99.90
24176;DHT22;12324;48.146;11.502;2022-11-14T00:15:48;4.60;99.90
24176;DHT22;12324;48.146;11.502;2022-11-14T00:18:16;4.60;99.90
24176;DHT22;12324;48.146;11.502;2022-11-14T00:20:47;4.70;99.90
24176;DHT22;12324;48.146;11.502;2022-11-14T00:23:14;4.60;99.90
24176;DHT22;12324;48.146;11.502;2022-11-14T00:25:42;4.50;99.90
24176;DHT22;12324;48.146;11.502;2022-11-14T00:28:10;4.50;99.90
24176;DHT22;12324;48.146;11.502;2022-11-14T00:30:36;4.50;99.90
24176;DHT22;12324;48.146;11.502;2022-11-14T00:33:03;4.40;99.90
24176;DHT22;12324;48.146;11.502;2022-11-14T00:35:30;4.40;99.90
24176;DHT22;12324;48.146;11.502;2022-11-14T00:37:56;4.50;99.90
24176;DHT22;12324;48.146;11.502;2022-11-14T00:40:23;4.50;99.90
24176;DHT22;12324;48.146;11.502;2022-11-14T00:42:49;4.50;99.90
24176;DHT22;12324;48.146;11.502;2022-11-14T00:45:16;4.50;99.90
24176;DHT22;12324;48.146;11.502;2022-11-14T00:47:43;4.60;99.90
24176;DHT22;12324;48.146;11.502;2022-11-14T00:50:10;4.60;99.90
24176;DHT22;12324;48.146;11.502;2022-11-14T00:52:36;4.60;99.90
24176;DHT22;12324;48.146;11.502;2022-11-14T00:55:03;4.60;99.90
24176;DHT22;12324;48.146;11.502;2022-11-14T00:57:30;4.60;99.90
24176;DHT22;12324;48.146;11.502;2022-11-14T00:59:57;4.60;99.90
24176;DHT22;12324;48.146;11.502;2022-11-14T01:02:24;4.60;99.90
24176;DHT22;12324;48.146;11.502;2022-11-14T01:04:50;4.50;99.90
24176;DHT22;12324;48.146;11.502;2022-11-14T01:07:17;4.40;99.90
24176;DHT22;12324;48.146;11.502;2022-11-14T01:09:44;4.40;99.90
24176;DHT22;12324;48.146;11.502;2022-11-14T01:12:10;4.30;99.90
24176;DHT22;12324;48.146;11.502;2022-11-14T01:14:39;4.30;99.90
24176;DHT22;12324;48.146;11.502;2022-11-14T01:17:06;4.30;99.90
24176;DHT22;12324;48.146;11.502;2022-11-14T01:19:33;4.20;99.90
24176;DHT22;12324;48.146;11.502;2022-11-14T01:21:59;4.30;99.90
24176;DHT22;12324;48.146;11.502;2022-11-14T01:24:32;4.40;99.90
24176;DHT22;12324;48.146;11.502;2022-11-14T01:26:59;4.30;99.90
24176;DHT22;12324;48.146;11.502;2022-11-14T01:29:26;4.10;99.90
24176;DHT22;12324;48.146;11.502;2022-11-14T01:31:52;4.00;99.90
24176;DHT22;12324;48.146;11.502;2022-11-14T01:34:19;4.00;99.90
24176;DHT22;12324;48.146;11.502;2022-11-14T01:36:46;4.00;99.90
24176;DHT22;12324;48.146;11.502;2022-11-14T01:39:12;4.10;99.90
24176;DHT22;12324;48.146;11.502;2022-11-14T01:41:39;4.10;99.90
24176;DHT22;12324;48.146;11.502;2022-11-14T01:47:03;4.00;99.90
24176;DHT22;12324;48.146;11.502;2022-11-14T01:49:42;4.00;99.90
24176;DHT22;12324;48.146;11.502;2022-11-14T01:52:12;4.00;99.90
24176;DHT22;12324;48.146;11.502;2022-11-14T01:54:47;3.90;99.90
24176;DHT22;12324;48.146;11.502;2022-11-14T01:57:17;3.80;99.90
24176;DHT22;12324;48.146;11.502;2022-11-14T01:59:50;3.70;99.90
24176;DHT22;12324;48.146;11.502;2022-11-14T02:02:21;3.60;99.90
24176;DHT22;12324;48.146;11.502;2022-11-14T02:04:52;3.50;99.90
24176;DHT22;12324;48.146;11.502;2022-11-14T02:07:22;3.50;99.90
24176;DHT22;12324;48.146;11.502;2022-11-14T02:09:50;3.40;99.90
24176;DHT22;12324;48.146;11.502;2022-11-14T02:12:18;3.40;99.90
24176;DHT22;12324;48.146;11.502;2022-11-14T02:14:47;3.40;99.90
24176;DHT22;12324;48.146;11.502;2022-11-14T02:17:16;3.50;99.90
24176;DHT22;12324;48.146;11.502;2022-11-14T02:22:36;3.60;99.90
24176;DHT22;12324;48.146;11.502;2022-11-14T02:25:05;3.50;99.90
24176;DHT22;12324;48.146;11.502;2022-11-14T02:27:32;3.50;99.90
24176;DHT22;12324;48.146;11.502;2022-11-14T02:30:21;3.60;99.90
24176;DHT22;12324;48.146;11.502;2022-11-14T02:32:48;3.70;99.90
24176;DHT22;12324;48.146;11.502;2022-11-14T02:35:34;3.70;99.90
24176;DHT22;12324;48.146;11.502;2022-11-14T02:38:01;3.70;99.90
24176;DHT22;12324;48.146;11.502;2022-11-14T02:40:27;3.60;99.90
24176;DHT22;12324;48.146;11.502;2022-11-14T02:42:54;3.60;99.90
24176;DHT22;12324;48.146;11.502;2022-11-14T02:45:21;3.70;99.90
24176;DHT22;12324;48.146;11.502;2022-11-14T02:47:47;3.80;99.90
